This is the latest recevied weather packets stored in our database for station/object HB3YKO-13. If no packets are shown the sender has not sent any weather packets the latest 10 day(s).
| Time | Temp. | Humidity | Pressure | Rain* | Wind** | Luminosity | Snow |
|---|---|---|---|---|---|---|---|
| 1777296609 | 9.44° C | 29% | 0 hPa | 0 mm | - | - | - |
| 1777295709 | 8.33° C | 30% | 0 hPa | 0 mm | - | - | - |
| 1777295409 | 10° C | 28% | 0 hPa | 0 mm | - | - | - |
| 1777293309 | 8.89° C | 30% | 0 hPa | 0 mm | - | - | - |
| 1777293009 | 8.89° C | 32% | 0 hPa | 0 mm | - | - | - |
| 1777292709 | 8.33° C | 31% | 0 hPa | 0 mm | - | - | - |
| 1777292409 | 7.78° C | 32% | 0 hPa | 0 mm | - | - | - |
| 1777291809 | -17.78° C | 100% | 0 hPa | 0 mm | - | - | - |
| 1777291510 | 7.22° C | 35% | 0 hPa | 0 mm | - | - | - |
| 1777291210 | 7.22° C | 35% | 0 hPa | 0 mm | - | - | - |
| 1777290610 | 7.78° C | 34% | 0 hPa | 0 mm | - | - | - |
| 1777290310 | -17.78° C | 100% | 0 hPa | 0 mm | - | - | - |
| 1777290010 | -17.78° C | 100% | 0 hPa | 0 mm | - | - | - |
| 1777289710 | -17.78° C | 100% | 0 hPa | 0 mm | - | - | - |
| 1777289110 | 7.22° C | 34% | 0 hPa | 0 mm | - | - | - |
| 1777288810 | -17.78° C | 100% | 0 hPa | 0 mm | - | - | - |
| 1777288510 | -17.78° C | 100% | 0 hPa | 0 mm | - | - | - |
| 1777288210 | 5.56° C | 37% | 0 hPa | 0 mm | - | - | - |
| 1777287910 | 6.67° C | 36% | 0 hPa | 0 mm | - | - | - |
| 1777287610 | 6.11° C | 36% | 0 hPa | 0 mm | - | - | - |
| 1777287310 | 6.11° C | 36% | 0 hPa | 0 mm | - | - | - |
| 1777287010 | 6.11° C | 36% | 0 hPa | 0 mm | - | - | - |
| 1777286710 | 6.11° C | 37% | 0 hPa | 0 mm | - | - | - |
| 1777286410 | 6.11° C | 38% | 0 hPa | 0 mm | - | - | - |
| 1777286110 | 5.56° C | 38% | 0 hPa | 0 mm | - | - | - |
* Rain latest hour (hover to see other rain measurements)
** Current wind speed in m/s (hover to see current wind gust speed)